Latest Weather Observations for Mount Magnet Airport

IDW60801

Issued at 7:05 am WST Tuesday 21 October 2014 (issued every 30 minutes, with the page automatically refreshed every 10 minutes)

About weather observations | Map of weather stations | Latest weather observations for WA | Other Formats
Station Details ID: 007600 Name: MOUNT MAGNET AERO Lat: -28.12 Lon: 117.84 Height: 407.0 m
Data from the previous 72 hours. | See also: Recent months at Mount Magnet Airport
Date/Time
WST
Temp
°C
App
Temp
°C
Dew
Point
Rel
Hum
%
Delta-T
°C
Wind Press
QNH
hPa
Press
MSL
hPa
Rain
since 9 am
mm
Dir
 
Spd
km/h
Gust
km/h
Spd
kts
Gust
kts
21/07:00am 16.6 13.4 8.3 58 4.3 ESE 15 20 8 11 1021.7 1020.0 0.0
21/06:30am 14.9 13.0 7.7 62 3.6 SSE 7 9 4 5 1021.2 1019.5 0.0
21/06:00am 13.5 11.5 7.1 65 3.2 SSW 7 9 4 5 1020.9 1019.2 0.0
21/05:30am 12.7 9.8 6.5 66 3.0 SSW 11 13 6 7 1020.6 1018.9 0.0
21/05:00am 13.0 10.5 6.4 64 3.2 SSW 9 11 5 6 1020.2 1018.5 0.0
21/04:30am 13.4 10.8 6.3 62 3.5 SSW 9 9 5 5 1020.0 1018.3 0.0
21/04:00am 13.6 11.4 6.0 60 3.7 SSW 7 7 4 4 1019.7 1018.0 0.0
21/03:30am 14.2 12.1 5.8 57 4.1 SSW 6 7 3 4 1019.5 1017.8 0.0
21/03:00am 14.6 11.9 5.7 55 4.3 SSW 9 11 5 6 1019.1 1017.3 0.0
21/02:30am 15.1 11.9 5.3 52 4.7 SSW 11 13 6 7 1019.1 1017.3 0.0
21/02:00am 15.9 13.2 5.5 50 5.1 S 9 11 5 6 1019.1 1017.3 0.0
21/01:30am 16.6 13.9 5.6 48 5.4 S 9 11 5 6 1019.1 1017.3 0.0
21/01:00am 16.9 14.6 5.5 47 5.6 S 7 9 4 5 1019.1 1017.3 0.0
21/12:30am 17.2 14.9 5.5 46 5.8 SSW 7 9 4 5 1019.2 1017.4 0.0
21/12:00am 18.0 15.2 5.2 43 6.3 S 9 13 5 7 1019.3 1017.5 0.0
 
Date/Time
WST
Temp
°C
App
Temp
°C
Dew
Point
Rel
Hum
%
Delta-T
°C
Wind Press
QNH
hPa
Press
MSL
hPa
Rain
since 9 am
mm
Dir
 
Spd
km/h
Gust
km/h
Spd
kts
Gust
kts
20/11:30pm 18.4 15.2 5.3 42 6.5 S 11 15 6 8 1019.4 1017.6 0.0
20/11:00pm 18.7 16.4 5.5 42 6.6 SSW 7 9 4 5 1019.5 1017.8 0.0
20/10:30pm 19.6 16.5 5.6 40 7.0 S 11 13 6 7 1019.7 1018.0 0.0
20/10:00pm 20.2 17.2 5.8 39 7.3 S 11 13 6 7 1019.6 1017.9 0.0
20/09:30pm 20.7 18.0 5.5 37 7.7 S 9 11 5 6 1019.7 1018.0 0.0
20/09:00pm 21.5 18.5 5.8 36 8.0 S 11 15 6 8 1019.6 1017.9 0.0
20/08:30pm 22.1 19.8 5.9 35 8.3 SSW 7 9 4 5 1019.6 1017.9 0.0
20/08:00pm 22.9 20.1 5.3 32 9.0 S 9 11 5 6 1019.3 1017.5 0.0
20/07:30pm 23.8 20.1 4.7 29 9.7 SSW 13 17 7 9 1018.8 1017.1 0.0
20/07:00pm 24.1 21.2 4.5 28 9.9 SW 9 13 5 7 1018.4 1016.7 0.0
20/06:30pm 24.7 20.3 4.5 27 10.3 WSW 17 20 9 11 1017.8 1016.1 0.0
20/06:00pm 25.1 20.5 3.7 25 10.7 WSW 17 20 9 11 1017.5 1015.8 0.0
20/05:30pm 25.4 20.7 3.4 24 11.0 WSW 17 24 9 13 1017.3 1015.6 0.0
20/05:00pm 25.8 21.1 3.1 23 11.3 SW 17 28 9 15 1017.0 1015.2 0.0
20/04:30pm 25.8 21.1 3.1 23 11.3 WSW 17 28 9 15 1016.8 1015.0 0.0
20/04:00pm 26.1 20.0 4.6 25 11.0 WSW 26 30 14 16 1016.7 1014.9 0.0
20/03:30pm 24.9 21.3 5.2 28 10.2 SSW 13 20 7 11 1016.7 1014.9 0.0
20/03:00pm 26.4 21.6 5.4 26 11.0 W 20 30 11 16 1016.7 1014.9 0.0
20/02:30pm 25.5 21.3 5.7 28 10.3 WSW 17 32 9 17 1016.6 1014.8 0.0
20/02:00pm 25.5 20.7 5.7 28 10.3 W 20 32 11 17 1016.9 1015.1 0.0
20/01:30pm 24.0 19.4 5.8 31 9.4 W 19 24 10 13 1017.2 1015.4 0.0
20/01:00pm 24.4 19.8 6.6 32 9.4 WSW 20 30 11 16 1017.6 1015.9 0.0
20/12:30pm 22.9 18.3 6.6 35 8.5 W 20 32 11 17 1017.9 1016.2 0.0
20/12:00pm 23.2 18.6 6.5 34 8.7 W 20 32 11 17 1018.2 1016.5 0.0
20/11:30am 22.6 18.1 6.8 36 8.3 WSW 20 28 11 15 1018.2 1016.5 0.0
20/11:00am 21.9 17.8 7.7 40 7.5 W 19 28 10 15 1018.5 1016.8 0.0
20/10:30am 21.3 18.8 8.2 43 7.0 W 11 19 6 10 1018.8 1017.1 0.0
20/10:00am 20.4 18.9 9.3 49 6.0 WSW 7 15 4 8 1018.9 1017.2 0.0
20/09:30am 18.8 16.3 9.6 55 5.0 WSW 13 20 7 11 1018.9 1017.2 0.0
20/09:00am 17.4 15.3 9.6 60 4.2 SW 11 17 6 9 1018.9 1017.2 0.0
20/08:30am 17.0 15.0 10.1 64 3.7 WSW 11 15 6 8 1018.8 1017.1 0.0
20/08:00am 16.3 14.0 10.4 68 3.2 WSW 13 19 7 10 1018.7 1017.0 0.0
20/07:30am 15.2 12.9 10.6 74 2.5 WSW 13 17 7 9 1018.7 1017.0 0.0
20/07:00am 14.9 13.1 10.7 76 2.3 W 11 15 6 8 1018.5 1016.8 0.0
20/06:30am 14.2 11.9 10.4 78 2.0 W 13 15 7 8 1018.1 1016.4 0.0
20/06:00am 13.3 11.6 9.9 80 1.8 W 9 11 5 6 1017.8 1016.1 0.0
20/05:30am 13.1 11.0 9.7 80 1.8 W 11 15 6 8 1017.6 1015.9 0.0
20/05:00am 13.4 11.6 9.6 78 2.0 W 9 13 5 7 1017.0 1015.2 0.0
20/04:30am 13.7 11.9 9.6 76 2.1 WSW 9 13 5 7 1016.4 1014.7 0.0
20/04:00am 14.0 12.2 9.6 75 2.3 W 9 15 5 8 1016.0 1014.3 0.0
20/03:30am 14.1 11.9 9.5 74 2.4 W 11 13 6 7 1015.7 1014.0 0.0
20/03:00am 14.5 12.7 9.5 72 2.6 W 9 13 5 7 1015.3 1013.6 0.0
20/02:30am 14.9 12.7 9.5 70 2.8 W 11 17 6 9 1015.2 1013.5 0.0
20/02:00am 15.1 13.0 9.7 70 2.9 W 11 15 6 8 1014.9 1013.1 0.0
20/01:30am 15.4 13.4 10.0 70 2.9 W 11 15 6 8 1015.3 1013.6 0.0
20/01:00am 15.4 14.4 11.0 75 2.4 W 7 9 4 5 1015.4 1013.7 0.0
20/12:30am 15.8 14.9 11.2 74 2.5 W 7 9 4 5 1015.5 1013.8 0.0
20/12:00am 15.8 15.1 12.0 78 2.1 W 7 9 4 5 1015.5 1013.8 0.0
 
Date/Time
WST
Temp
°C
App
Temp
°C
Dew
Point
Rel
Hum
%
Delta-T
°C
Wind Press
QNH
hPa
Press
MSL
hPa
Rain
since 9 am
mm
Dir
 
Spd
km/h
Gust
km/h
Spd
kts
Gust
kts
19/11:30pm 15.9 14.9 12.3 79 2.0 W 9 9 5 5 1015.8 1014.1 0.0
19/11:00pm 16.2 15.7 12.7 80 2.0 W 7 9 4 5 1015.7 1014.0 0.0
19/10:30pm 16.7 16.2 12.0 74 2.6 S 6 7 3 4 1015.6 1013.9 0.0
19/10:00pm 17.1 16.5 11.8 71 3.0 SE 6 7 3 4 1015.7 1014.0 0.0
19/09:30pm 16.9 16.4 12.2 74 2.6 SE 6 7 3 4 1015.7 1014.0 0.0
19/09:00pm 17.4 16.3 11.9 70 3.1 SSW 9 11 5 6 1015.5 1013.8 0.0
19/08:30pm 17.5 16.2 12.4 72 2.9 SW 11 13 6 7 1015.3 1013.6 0.0
19/08:00pm 17.6 16.6 12.3 71 3.0 WSW 9 11 5 6 1015.3 1013.6 0.0
19/07:30pm 17.7 16.2 11.9 69 3.2 SSW 11 15 6 8 1014.8 1013.0 0.0
19/07:00pm 18.1 15.7 11.4 65 3.7 SSW 15 22 8 12 1014.2 1012.4 0.0
19/06:30pm 17.7 12.6 11.9 69 3.2 SSW 30 35 16 19 1013.8 1012.1 0.0
19/06:19pm 17.4 12.1 12.5 73 2.8 WSW 32 50 17 27 1014.6 1012.8 0.0
19/06:06pm 18.3 10.7 11.8 66 3.6 W 43 54 23 29 1014.2 1012.4 0.0
19/06:00pm 19.7 9.5 9.9 53 5.3 WNW 54 74 29 40 1013.7 1012.0 0.0
19/05:58pm 20.3 10.2 8.9 48 6.1 WNW 52 74 28 40 1013.5 1011.8 0.0
19/05:56pm 20.9 11.1 8.5 45 6.6 WNW 50 61 27 33 1013.5 1011.8 0.0
19/05:30pm 23.3 17.8 5.7 32 9.1 W 24 33 13 18 1012.8 1011.0 0.0
19/05:00pm 24.3 18.7 5.6 30 9.7 W 24 32 13 17 1012.5 1010.7 0.0
19/04:30pm 23.9 18.4 5.8 31 9.4 W 24 32 13 17 1012.5 1010.7 0.0
19/04:00pm 24.1 18.2 4.0 27 10.1 WNW 24 37 13 20 1012.4 1010.6 0.0
19/03:30pm 24.4 18.0 5.2 29 9.9 W 28 37 15 20 1012.1 1010.3 0.0
19/03:00pm 24.0 18.0 5.4 30 9.6 W 26 41 14 22 1012.0 1010.2 0.0
19/02:30pm 23.1 16.3 5.1 31 9.2 W 30 39 16 21 1012.0 1010.2 0.0
19/02:00pm 22.3 13.8 6.9 37 8.1 W 41 57 22 31 1012.0 1010.2 0.0
19/01:53pm 22.7 13.2 6.5 35 8.4 W 46 57 25 31 1012.0 1010.2 0.0
19/01:30pm 25.3 19.3 5.5 28 10.3 WNW 26 39 14 21 1011.9 1010.1 0.0
19/01:00pm 23.2 15.2 5.6 32 9.1 W 37 52 20 28 1012.3 1010.5 0.0
19/12:51pm 23.2 16.5 5.6 32 9.1 WNW 30 52 16 28 1012.1 1010.3 0.0
19/12:30pm 24.3 19.5 7.4 34 9.0 WNW 22 30 12 16 1012.3 1010.5 0.0
19/12:00pm 22.0 18.4 8.5 42 7.3 WNW 17 26 9 14 1012.8 1011.0 0.0
19/11:30am 23.1 18.5 8.0 38 8.1 NW 22 39 12 21 1013.1 1011.4 0.0
19/11:00am 21.8 18.8 9.3 45 6.8 NNW 15 20 8 11 1013.6 1011.9 0.0
19/10:30am 21.4 18.9 9.6 47 6.5 WNW 13 19 7 10 1014.1 1012.3 0.0
19/10:00am 20.7 18.5 10.8 53 5.5 NW 13 19 7 10 1014.3 1012.5 0.0
19/09:30am 20.4 17.2 11.3 56 5.1 W 19 30 10 16 1014.3 1012.5 0.0
19/09:00am 19.4 16.7 11.7 61 4.3 W 17 22 9 12 1014.2 1012.4 3.0
19/08:30am 18.6 15.2 11.4 63 4.0 W 20 26 11 14 1014.2 1012.4 3.0
19/08:00am 18.3 15.6 11.8 66 3.6 W 17 22 9 12 1014.0 1012.2 3.0
19/07:30am 17.7 14.7 11.9 69 3.2 W 19 24 10 13 1013.7 1012.0 3.0
19/07:00am 16.7 15.2 11.8 73 2.7 NW 11 15 6 8 1013.5 1011.8 3.0
19/06:30am 15.6 14.0 12.7 83 1.6 WNW 13 15 7 8 1013.3 1011.6 3.0
19/06:00am 15.1 14.3 13.0 87 1.2 NW 9 9 5 5 1012.9 1011.1 3.0
19/05:30am 15.0 14.5 12.5 85 1.4 NW 7 9 4 5 1012.4 1010.6 3.0
19/05:00am 15.1 15.6 11.5 79 2.0 CALM 0 0 0 0 1012.5 1010.7 3.0
19/04:30am 14.7 15.3 12.0 84 1.5 CALM 0 0 0 0 1012.1 1010.3 3.0
19/04:00am 14.8 14.1 11.9 83 1.6 SW 7 9 4 5 1012.5 1010.7 3.0
19/03:30am 14.9 13.7 11.7 81 1.8 SSE 9 11 5 6 1012.1 1010.3 3.0
19/03:00am 15.5 13.9 11.5 77 2.2 SSE 11 15 6 8 1012.1 1010.3 2.2
19/02:30am 16.2 14.4 10.7 70 3.0 SSW 11 15 6 8 1012.5 1010.7 1.6
19/02:00am 17.2 14.7 11.2 68 3.3 SSW 15 20 8 11 1012.4 1010.6 1.4
19/01:30am 16.9 15.7 11.6 71 2.9 SW 9 11 5 6 1012.6 1010.8 1.2
19/01:00am 16.1 15.8 11.5 74 2.5 WSW 4 6 2 3 1012.7 1010.9 1.2
19/12:30am 16.9 12.7 11.2 69 3.1 WSW 24 35 13 19 1013.1 1011.4 0.2
19/12:00am 19.2 15.3 8.5 50 5.7 SW 19 24 10 13 1013.0 1011.3 0.0
 
Date/Time
WST
Temp
°C
App
Temp
°C
Dew
Point
Rel
Hum
%
Delta-T
°C
Wind Press
QNH
hPa
Press
MSL
hPa
Rain
since 9 am
mm
Dir
 
Spd
km/h
Gust
km/h
Spd
kts
Gust
kts
18/11:30pm 19.5 16.0 8.8 50 5.7 SW 17 26 9 14 1013.2 1011.5 0.0
18/11:00pm 19.9 16.7 9.8 52 5.5 SSW 17 24 9 13 1013.4 1011.7 0.0
18/10:30pm 20.2 16.5 9.5 50 5.8 SW 19 26 10 14 1013.4 1011.7 0.0
18/10:00pm 20.4 14.9 9.0 48 6.1 SSW 28 33 15 18 1013.1 1011.4 0.0
18/09:30pm 21.1 14.6 9.0 46 6.5 WSW 33 43 18 23 1013.7 1012.0 0.0
18/09:18pm 21.6 16.2 9.5 46 6.6 WSW 28 46 15 25 1013.4 1011.7 0.0
18/09:00pm 22.0 15.8 9.9 46 6.7 WSW 33 46 18 25 1013.1 1011.4 0.0
18/08:34pm 23.7 16.0 8.5 38 8.3 WSW 39 50 21 27 1012.6 1010.8 0.0
18/08:30pm 24.7 20.5 7.4 33 9.3 W 19 24 10 13 1012.4 1010.6 0.0
18/08:00pm 24.8 21.3 7.0 32 9.5 WNW 15 20 8 11 1011.8 1010.0 0.0
18/07:30pm 25.2 20.7 6.9 31 9.8 WNW 20 28 11 15 1011.4 1009.6 0.0
18/07:00pm 25.8 21.5 6.9 30 10.1 WNW 19 24 10 13 1011.1 1009.4 0.0
18/06:30pm 26.1 21.7 7.2 30 10.2 WNW 20 30 11 16 1011.2 1009.5 0.0
18/06:00pm 26.3 22.0 6.9 29 10.4 W 19 26 10 14 1010.5 1008.7 0.0
18/05:30pm 26.9 21.5 6.3 27 11.0 W 24 33 13 18 1010.3 1008.5 0.0
18/05:00pm 27.5 20.8 3.9 22 12.1 WNW 28 35 15 19 1010.4 1008.6 0.0
18/04:30pm 28.1 21.9 4.4 22 12.3 WNW 26 39 14 21 1010.4 1008.6 0.0
18/04:00pm 28.3 22.2 4.6 22 12.4 NNW 26 35 14 19 1010.3 1008.5 0.0
18/03:30pm 28.3 21.6 3.9 21 12.6 NNW 28 39 15 21 1009.8 1008.0 0.0
18/03:00pm 28.1 21.7 5.0 23 12.1 NW 28 41 15 22 1010.3 1008.5 0.0
18/02:30pm 28.4 20.4 4.0 21 12.6 NW 35 43 19 23 1010.8 1009.1 0.0
18/02:00pm 29.2 22.4 3.2 19 13.3 WNW 28 39 15 21 1010.4 1008.6 0.0
18/01:30pm 29.0 23.3 3.1 19 13.2 NNW 22 33 12 18 1010.7 1008.9 0.0
18/01:00pm 28.8 23.7 4.3 21 12.8 NNW 20 33 11 18 1011.0 1009.3 0.0
18/12:32pm 29.6 23.2 5.0 21 13.0 WNW 28 46 15 25 1011.2 1009.5 0.0
18/12:30pm 29.1 23.5 5.2 22 12.6 WNW 24 39 13 21 1011.2 1009.5 0.0
18/12:00pm 28.3 22.5 6.4 25 11.8 NW 26 41 14 22 1011.8 1010.0 0.0
18/11:30am 27.0 20.9 6.4 27 11.0 NNW 28 41 15 22 1012.1 1010.3 0.0
18/11:00am 27.3 21.7 7.2 28 10.9 NW 26 41 14 22 1012.3 1010.5 0.0
18/10:30am 26.0 19.4 6.1 28 10.5 NW 30 41 16 22 1012.6 1010.8 0.0
18/10:00am 26.2 20.4 6.3 28 10.6 NNW 26 41 14 22 1012.7 1010.9 0.0
18/09:30am 24.8 19.2 8.7 36 8.8 NW 28 37 15 20 1013.0 1011.3 0.0
18/09:00am 23.9 19.3 11.2 44 7.2 NNW 26 37 14 20 1013.0 1011.3 4.8
18/08:30am 22.8 18.2 12.4 52 6.0 NNW 28 35 15 19 1012.9 1011.1 4.8
18/08:00am 21.6 17.6 15.2 67 3.9 N 30 35 16 19 1012.7 1010.9 4.8
18/07:30am 20.6 16.4 15.8 74 2.9 N 32 39 17 21 1012.9 1011.1 4.8

Other Formats:

Comma delimited format used in spreadsheet applications
http://www.bom.gov.au/fwo/IDW60801/IDW60801.94429.axf

JavaScript Object Notation format (JSON) in row-major order
http://www.bom.gov.au/fwo/IDW60801/IDW60801.94429.json